createdAt,value
2023-06-19T00:00:28.183Z,22.52
2023-06-19T00:05:32.324Z,22.43
2023-06-19T00:10:36.500Z,22.30
2023-06-19T00:15:40.643Z,22.16
2023-06-19T00:20:44.779Z,22.09
2023-06-19T00:25:48.942Z,22.00
2023-06-19T00:30:53.133Z,21.87
2023-06-19T00:35:57.282Z,21.84
2023-06-19T00:41:01.466Z,21.77
2023-06-19T00:46:05.636Z,21.60
2023-06-19T00:51:09.797Z,21.51
2023-06-19T00:56:13.915Z,21.37
2023-06-19T01:01:18.132Z,21.37
2023-06-19T01:06:22.243Z,21.30
2023-06-19T01:11:27.249Z,21.27
2023-06-19T01:16:30.619Z,21.17
2023-06-19T01:21:34.716Z,21.14
2023-06-19T01:26:38.886Z,21.06
2023-06-19T01:31:43.038Z,21.00
2023-06-19T01:36:47.206Z,20.95
2023-06-19T01:41:51.338Z,20.86
2023-06-19T01:46:55.612Z,20.81
2023-06-19T01:51:59.689Z,20.85
2023-06-19T01:57:03.841Z,20.81
2023-06-19T02:02:07.986Z,20.74
2023-06-19T02:07:12.200Z,20.62
2023-06-19T02:12:16.284Z,20.53
2023-06-19T02:17:20.557Z,20.55
2023-06-19T02:22:24.612Z,20.61
2023-06-19T02:27:28.761Z,20.75
2023-06-19T02:32:32.965Z,21.09
2023-06-19T02:37:37.152Z,21.53
2023-06-19T02:42:41.264Z,21.84
2023-06-19T02:47:45.429Z,21.89
2023-06-19T02:52:49.592Z,22.04
2023-06-19T02:57:53.769Z,22.01
2023-06-19T03:02:58.011Z,22.03
2023-06-19T03:08:02.073Z,22.11
2023-06-19T03:13:06.191Z,22.15
2023-06-19T03:18:10.428Z,22.15
2023-06-19T03:23:14.555Z,22.18
2023-06-19T03:28:18.727Z,22.12
2023-06-19T03:33:22.844Z,22.02
2023-06-19T03:38:27.029Z,21.85
2023-06-19T03:43:31.152Z,21.70
2023-06-19T03:48:35.298Z,21.53
2023-06-19T03:53:39.492Z,21.42
2023-06-19T03:58:43.642Z,21.31
2023-06-19T04:03:47.842Z,21.20
2023-06-19T04:08:51.985Z,21.14
2023-06-19T04:13:54.233Z,21.07
2023-06-19T04:18:58.406Z,21.00
2023-06-19T04:24:02.574Z,20.88
2023-06-19T04:29:06.689Z,20.82
2023-06-19T04:34:10.867Z,20.77
2023-06-19T04:39:15.024Z,20.72
2023-06-19T04:44:19.151Z,20.66
2023-06-19T04:49:24.308Z,20.64
2023-06-19T04:54:27.492Z,20.66
2023-06-19T04:59:31.638Z,20.79
2023-06-19T05:04:35.834Z,20.70
2023-06-19T05:09:39.960Z,20.63
2023-06-19T05:14:44.157Z,20.61
2023-06-19T05:19:48.310Z,20.61
2023-06-19T05:24:52.482Z,20.54
2023-06-19T05:29:56.653Z,20.61
2023-06-19T05:35:00.791Z,20.62
2023-06-19T05:40:05.009Z,20.61
2023-06-19T05:45:09.110Z,20.60
2023-06-19T05:50:13.275Z,20.76
2023-06-19T05:55:17.490Z,20.85
2023-06-19T06:00:21.730Z,21.08
2023-06-19T06:05:25.753Z,21.05
2023-06-19T06:10:29.918Z,21.06
2023-06-19T06:15:34.074Z,21.13
2023-06-19T06:20:38.234Z,21.19
2023-06-19T06:30:46.548Z,21.55
2023-06-19T06:35:50.690Z,21.54
2023-06-19T06:40:54.844Z,21.43
2023-06-19T06:45:59.048Z,21.33
2023-06-19T06:51:03.226Z,21.23
2023-06-19T06:56:07.375Z,21.21
2023-06-19T07:01:11.518Z,21.47
2023-06-19T07:06:15.635Z,21.57
2023-06-19T07:11:19.796Z,21.55
2023-06-19T07:16:24.033Z,21.65
2023-06-19T07:21:28.192Z,21.52
2023-06-19T07:26:32.292Z,21.56
2023-06-19T07:31:36.464Z,21.49
2023-06-19T07:36:40.645Z,21.33
2023-06-19T07:41:44.782Z,21.40
2023-06-19T07:46:48.940Z,21.21
2023-06-19T07:51:53.108Z,21.04
2023-06-19T07:56:57.248Z,21.08
2023-06-19T08:02:01.378Z,21.15
2023-06-19T08:07:05.585Z,21.30
2023-06-19T08:12:09.749Z,21.33
2023-06-19T08:17:13.926Z,21.27
2023-06-19T08:22:18.052Z,21.22
2023-06-19T08:27:22.183Z,21.44
2023-06-19T08:32:26.439Z,21.57
2023-06-19T08:37:30.546Z,21.52
2023-06-19T08:42:34.668Z,21.63
2023-06-19T08:47:38.874Z,21.55
2023-06-19T08:52:42.985Z,21.44
2023-06-19T08:57:47.140Z,21.25
2023-06-19T09:03:04.525Z,21.46
2023-06-19T09:07:55.477Z,21.79
2023-06-19T09:12:59.645Z,21.83
2023-06-19T09:18:03.926Z,21.97
2023-06-19T09:23:07.993Z,21.97
2023-06-19T09:28:12.141Z,22.70
2023-06-19T09:33:16.351Z,23.02
2023-06-19T09:38:20.432Z,23.08
2023-06-19T09:43:22.681Z,22.92
2023-06-19T09:48:26.955Z,23.26
2023-06-19T09:53:31.033Z,23.36
2023-06-19T09:58:35.161Z,23.48
2023-06-19T10:03:39.409Z,23.97
2023-06-19T10:08:43.654Z,24.16
2023-06-19T10:13:47.635Z,24.27
2023-06-19T10:18:51.802Z,24.03
2023-06-19T10:23:56.193Z,24.23
2023-06-19T10:29:00.130Z,24.29
2023-06-19T10:34:04.268Z,24.63
2023-06-19T10:39:08.431Z,24.71
2023-06-19T10:44:12.616Z,25.08
2023-06-19T10:49:16.767Z,25.12
2023-06-19T10:54:20.937Z,25.08
2023-06-19T10:59:25.056Z,25.35
2023-06-19T11:04:29.248Z,25.35
2023-06-19T11:09:33.368Z,25.13
2023-06-19T11:14:37.555Z,25.33
2023-06-19T15:48:22.141Z,33.54
2023-06-19T15:53:24.479Z,33.57
2023-06-19T15:58:42.614Z,33.93
2023-06-19T16:04:00.962Z,34.43
2023-06-19T16:09:19.029Z,35.15
2023-06-19T16:14:37.100Z,34.78
2023-06-19T16:19:39.368Z,35.20
2023-06-19T16:24:50.548Z,34.45
2023-06-19T16:30:01.721Z,35.47
2023-06-19T16:35:12.883Z,33.63
2023-06-19T16:40:24.316Z,34.36
2023-06-19T16:45:33.371Z,35.38
2023-06-19T16:50:37.479Z,35.39
2023-06-19T16:55:41.702Z,36.07
2023-06-19T17:00:45.904Z,35.62
2023-06-19T17:05:49.968Z,35.10
2023-06-19T17:10:54.147Z,33.29
2023-06-19T17:15:58.312Z,31.51
2023-06-19T17:21:02.533Z,30.51
2023-06-19T17:26:06.618Z,29.62
2023-06-19T17:31:10.808Z,28.96
2023-06-19T17:36:14.962Z,28.45
2023-06-19T17:41:19.135Z,28.07
2023-06-19T17:46:23.313Z,27.49
2023-06-19T17:51:27.441Z,27.36
2023-06-19T17:56:31.566Z,27.02
2023-06-19T18:01:35.754Z,26.66
2023-06-19T18:06:39.895Z,26.42
2023-06-19T18:11:44.064Z,26.13
2023-06-19T18:21:52.415Z,25.48
2023-06-19T18:26:56.544Z,25.42
2023-06-19T18:32:00.682Z,25.29
2023-06-19T18:37:04.917Z,24.97
2023-06-19T18:42:09.034Z,24.66
2023-06-19T18:47:13.152Z,24.54
2023-06-19T18:52:17.312Z,24.35
2023-06-19T18:57:21.463Z,24.07
2023-06-19T19:02:25.709Z,23.82
2023-06-19T19:07:29.846Z,23.67
2023-06-19T19:12:33.952Z,23.34
2023-06-19T19:17:38.178Z,22.99
2023-06-19T19:22:42.309Z,22.76
2023-06-19T19:27:46.468Z,22.49
2023-06-19T19:32:50.745Z,22.27
2023-06-19T19:37:54.796Z,22.09
2023-06-19T19:42:58.922Z,21.87
2023-06-19T19:48:03.185Z,21.62
2023-06-19T19:53:07.223Z,21.43
2023-06-19T19:58:11.379Z,21.37
2023-06-19T20:03:15.640Z,21.34
2023-06-19T20:08:19.737Z,21.20
2023-06-19T20:13:23.865Z,20.92
2023-06-19T20:18:28.523Z,20.91
2023-06-19T20:23:32.192Z,20.77
2023-06-19T20:28:36.398Z,20.55
2023-06-19T20:33:40.520Z,20.47
2023-06-19T20:38:44.681Z,20.53
2023-06-19T20:43:48.834Z,20.52
2023-06-19T20:48:52.986Z,20.37
2023-06-19T20:53:57.154Z,20.31
2023-06-19T20:59:01.300Z,20.16
2023-06-19T21:04:05.467Z,20.07
2023-06-19T21:09:09.627Z,19.97
2023-06-19T21:14:13.819Z,19.94
2023-06-19T21:19:17.973Z,19.94
2023-06-19T21:24:22.178Z,19.91
2023-06-19T21:29:26.263Z,19.88
2023-06-19T21:34:30.395Z,19.85
2023-06-19T21:39:34.672Z,19.78
2023-06-19T21:44:38.760Z,19.71
2023-06-19T21:49:42.891Z,19.64
2023-06-19T21:54:47.086Z,19.61
2023-06-19T21:59:51.250Z,19.55
2023-06-19T22:04:55.412Z,19.46
2023-06-19T22:09:59.517Z,19.41
2023-06-19T22:15:01.826Z,19.41
2023-06-19T22:20:06.022Z,19.43
2023-06-19T22:25:10.164Z,19.43
2023-06-19T22:30:14.277Z,19.36
2023-06-19T22:35:18.505Z,19.35
2023-06-19T22:40:22.691Z,19.34
2023-06-19T22:45:27.453Z,19.36
2023-06-19T22:50:30.928Z,19.39
2023-06-19T22:55:35.095Z,19.36
2023-06-19T23:00:39.218Z,19.34
2023-06-19T23:05:43.421Z,19.28
2023-06-19T23:10:47.586Z,19.24
2023-06-19T23:15:51.741Z,19.25
2023-06-19T23:20:55.858Z,19.24
2023-06-19T23:26:00.011Z,19.20
2023-06-19T23:31:04.189Z,19.16
2023-06-19T23:36:08.331Z,19.16
2023-06-19T23:41:12.509Z,19.15
2023-06-19T23:46:16.813Z,19.13
2023-06-19T23:51:20.838Z,19.17
2023-06-19T23:56:24.970Z,19.21
